createdAt,value
2022-11-10T00:00:09.071Z,91.80
2022-11-10T00:02:55.679Z,91.85
2022-11-10T00:05:41.758Z,91.78
2022-11-10T00:08:27.947Z,91.81
2022-11-10T00:11:14.211Z,91.46
2022-11-10T00:14:18.715Z,91.77
2022-11-10T00:17:06.345Z,91.89
2022-11-10T00:19:52.223Z,91.84
2022-11-10T00:22:39.548Z,91.80
2022-11-10T00:25:26.067Z,91.55
2022-11-10T00:28:12.186Z,91.73
2022-11-10T00:30:58.496Z,91.43
2022-11-10T00:33:45.270Z,91.14
2022-11-10T00:36:31.129Z,90.84
2022-11-10T00:39:17.307Z,91.37
2022-11-10T00:42:03.967Z,91.10
2022-11-10T00:44:49.826Z,91.27
2022-11-10T00:47:36.120Z,91.26
2022-11-10T00:50:23.519Z,90.81
2022-11-10T00:53:09.351Z,91.26
2022-11-10T00:55:55.511Z,91.24
2022-11-10T00:58:41.928Z,90.86
2022-11-10T01:01:27.649Z,90.99
2022-11-10T01:04:13.707Z,91.13
2022-11-10T01:07:01.423Z,91.20
2022-11-10T01:09:47.321Z,91.40
2022-11-10T01:12:33.511Z,91.48
2022-11-10T01:15:24.504Z,91.15
2022-11-10T01:18:13.038Z,91.28
2022-11-10T01:20:58.949Z,91.50
2022-11-10T01:23:45.799Z,91.31
2022-11-10T01:26:31.850Z,91.71
2022-11-10T01:29:17.938Z,91.48
2022-11-10T01:32:03.377Z,91.59
2022-11-10T01:34:49.611Z,91.61
2022-11-10T01:37:36.220Z,91.70
2022-11-10T01:40:23.628Z,91.48
2022-11-10T01:43:11.239Z,91.80
2022-11-10T01:46:00.903Z,91.61
2022-11-10T01:48:49.931Z,91.49
2022-11-10T01:51:41.717Z,91.41
2022-11-10T01:54:32.175Z,91.93
2022-11-10T01:57:19.219Z,91.67
2022-11-10T02:00:06.114Z,91.93
2022-11-10T02:02:58.219Z,92.07
2022-11-10T02:05:44.872Z,91.75
2022-11-10T02:08:31.105Z,92.20
2022-11-10T02:11:17.522Z,91.69
2022-11-10T02:14:05.537Z,92.16
2022-11-10T02:16:51.635Z,92.13
2022-11-10T02:19:41.844Z,92.08
2022-11-10T02:22:28.880Z,92.14
2022-11-10T02:25:19.646Z,92.45
2022-11-10T02:28:05.709Z,92.46
2022-11-10T02:30:52.371Z,92.53
2022-11-10T02:33:38.202Z,92.23
2022-11-10T02:36:23.669Z,92.21
2022-11-10T02:39:10.773Z,92.18
2022-11-10T02:41:56.678Z,92.28
2022-11-10T02:44:43.088Z,92.36
2022-11-10T02:47:30.880Z,92.05
2022-11-10T02:50:17.357Z,91.52
2022-11-10T02:53:03.465Z,91.62
2022-11-10T02:55:50.682Z,91.70
2022-11-10T02:58:36.678Z,91.91
2022-11-10T03:01:22.325Z,92.14
2022-11-10T03:04:08.621Z,91.88
2022-11-10T03:06:54.453Z,92.03
2022-11-10T03:09:40.027Z,92.13
2022-11-10T03:12:27.394Z,92.33
2022-11-10T03:15:13.070Z,92.10
2022-11-10T03:18:03.620Z,92.30
2022-11-10T03:20:50.136Z,92.49
2022-11-10T03:23:36.537Z,92.79
2022-11-10T03:26:22.609Z,92.40
2022-11-10T03:29:10.263Z,92.23
2022-11-10T03:31:56.245Z,92.15
2022-11-10T03:34:41.674Z,91.99
2022-11-10T03:37:27.381Z,91.84
2022-11-10T03:40:13.434Z,91.77
2022-11-10T03:42:59.474Z,91.71
2022-11-10T03:45:46.226Z,92.09
2022-11-10T03:48:31.924Z,91.99
2022-11-10T03:51:18.182Z,91.85
2022-11-10T03:54:04.113Z,92.03
2022-11-10T03:56:49.434Z,91.80
2022-11-10T03:59:35.193Z,91.75
2022-11-10T04:02:22.588Z,91.76
2022-11-10T04:05:28.208Z,91.88
2022-11-10T04:08:35.139Z,91.98
2022-11-10T04:11:40.799Z,91.78
2022-11-10T04:14:45.124Z,92.00
2022-11-10T04:17:32.868Z,91.61
2022-11-10T04:20:18.913Z,91.70
2022-11-10T04:23:23.846Z,91.63
2022-11-10T04:26:29.984Z,91.71
2022-11-10T04:29:17.775Z,91.98
2022-11-10T04:32:03.619Z,91.65
2022-11-10T04:34:50.500Z,91.51
2022-11-10T04:37:36.467Z,91.74
2022-11-10T04:40:22.438Z,91.55
2022-11-10T04:43:07.969Z,91.34
2022-11-10T04:45:54.427Z,91.49
2022-11-10T04:48:40.291Z,91.34
2022-11-10T04:51:29.780Z,91.14
2022-11-10T04:54:15.998Z,91.21
2022-11-10T04:57:01.929Z,91.56
2022-11-10T04:59:47.686Z,91.33
2022-11-10T05:02:38.296Z,91.04
2022-11-10T05:05:25.534Z,90.95
2022-11-10T05:08:12.196Z,90.73
2022-11-10T05:10:58.690Z,90.72
2022-11-10T05:13:45.480Z,90.43
2022-11-10T05:16:32.075Z,91.03
2022-11-10T05:19:17.524Z,90.80
2022-11-10T05:22:03.359Z,90.49
2022-11-10T05:24:50.260Z,90.47
2022-11-10T05:27:36.360Z,90.54
2022-11-10T05:30:22.034Z,90.13
2022-11-10T05:33:08.286Z,90.23
2022-11-10T05:35:54.060Z,90.19
2022-11-10T05:38:43.520Z,90.31
2022-11-10T05:41:30.961Z,90.28
2022-11-10T05:44:16.720Z,90.70
2022-11-10T05:47:02.167Z,90.51
2022-11-10T05:49:47.846Z,90.50
2022-11-10T05:52:33.970Z,90.52
2022-11-10T05:55:22.040Z,90.23
2022-11-10T05:58:09.499Z,90.36
2022-11-10T06:00:55.287Z,90.49
2022-11-10T06:03:41.048Z,90.14
2022-11-10T06:06:26.911Z,89.79
2022-11-10T06:09:12.512Z,89.66
2022-11-10T06:11:58.546Z,89.92
2022-11-10T06:14:45.772Z,89.66
2022-11-10T06:17:31.733Z,89.53
2022-11-10T06:20:18.101Z,89.48
2022-11-10T06:23:05.729Z,89.37
2022-11-10T06:25:51.529Z,89.35
2022-11-10T06:28:37.582Z,89.63
2022-11-10T06:31:24.465Z,89.47
2022-11-10T06:34:09.910Z,89.76
2022-11-10T06:36:55.529Z,89.51
2022-11-10T06:39:41.052Z,89.49
2022-11-10T06:42:26.879Z,89.21
2022-11-10T06:45:12.350Z,89.49
2022-11-10T06:48:03.403Z,89.89
2022-11-10T06:50:49.210Z,89.73
2022-11-10T06:53:34.784Z,89.82
2022-11-10T06:56:21.010Z,89.86
2022-11-10T06:59:06.870Z,89.86
2022-11-10T07:01:52.311Z,90.12
2022-11-10T07:04:39.775Z,90.22
2022-11-10T07:07:25.803Z,89.98
2022-11-10T07:10:12.069Z,89.93
2022-11-10T07:12:58.603Z,89.86
2022-11-10T07:15:44.550Z,89.88
2022-11-10T07:18:30.462Z,89.93
2022-11-10T07:21:17.913Z,89.48
2022-11-10T07:24:04.175Z,89.08
2022-11-10T07:26:50.308Z,89.29
2022-11-10T07:29:36.208Z,88.89
2022-11-10T07:32:22.170Z,89.07
2022-11-10T07:35:09.043Z,89.21
2022-11-10T07:37:56.332Z,88.95
2022-11-10T07:40:42.513Z,89.39
2022-11-10T07:43:28.587Z,89.02
2022-11-10T07:46:14.220Z,88.81
2022-11-10T07:49:00.092Z,88.89
2022-11-10T07:51:45.437Z,88.38
2022-11-10T07:54:32.542Z,88.40
2022-11-10T07:57:18.396Z,88.57
2022-11-10T08:00:04.614Z,88.10
2022-11-10T08:02:51.151Z,88.23
2022-11-10T08:05:36.843Z,88.27
2022-11-10T08:08:22.865Z,88.47
2022-11-10T08:11:09.852Z,88.43
2022-11-10T08:13:55.842Z,88.00
2022-11-10T08:16:41.917Z,88.45
2022-11-10T08:19:27.910Z,88.41
2022-11-10T08:22:13.401Z,88.09
2022-11-10T08:24:59.179Z,88.13
2022-11-10T08:27:46.625Z,88.15
2022-11-10T08:30:33.185Z,88.28
2022-11-10T08:33:21.962Z,87.94
2022-11-10T08:36:09.159Z,87.99
2022-11-10T08:38:54.940Z,88.36
2022-11-10T08:41:41.045Z,87.81
2022-11-10T08:44:28.301Z,87.61
2022-11-10T08:47:13.992Z,87.92
2022-11-10T08:49:59.821Z,88.24
2022-11-10T08:52:45.231Z,88.11
2022-11-10T08:55:31.168Z,88.30
2022-11-10T08:58:19.242Z,88.28
2022-11-10T09:01:09.904Z,88.11
2022-11-10T09:03:56.557Z,87.97
2022-11-10T09:06:42.555Z,87.77
2022-11-10T09:09:28.292Z,87.89
2022-11-10T09:12:14.187Z,87.75
2022-11-10T09:15:00.151Z,87.45
2022-11-10T09:17:47.527Z,86.96
2022-11-10T09:20:35.432Z,86.71
2022-11-10T09:23:22.867Z,87.06
2022-11-10T09:26:08.944Z,86.74
2022-11-10T09:28:54.516Z,86.55
2022-11-10T09:31:40.412Z,86.45
2022-11-10T09:34:27.730Z,86.51
2022-11-10T09:37:13.818Z,85.91
2022-11-10T09:40:01.393Z,85.96
2022-11-10T09:42:48.068Z,85.72
2022-11-10T09:45:39.729Z,84.99
2022-11-10T09:48:28.709Z,85.12
2022-11-10T09:51:19.812Z,84.89
2022-11-10T09:54:16.706Z,84.81
2022-11-10T09:57:06.355Z,84.29
2022-11-10T09:59:53.306Z,83.23
2022-11-10T10:02:45.359Z,82.91
2022-11-10T10:05:49.113Z,82.76
2022-11-10T10:08:49.173Z,82.31
2022-11-10T10:11:46.604Z,81.93
2022-11-10T10:14:57.445Z,82.21
2022-11-10T10:17:53.246Z,81.92
2022-11-10T10:20:50.816Z,82.38
2022-11-10T10:24:07.856Z,81.94
2022-11-10T10:26:50.803Z,81.96
2022-11-10T10:29:38.352Z,81.89
2022-11-10T10:32:26.755Z,81.12
2022-11-10T10:35:14.521Z,81.01
2022-11-10T10:38:02.269Z,80.91
2022-11-10T10:40:51.014Z,80.63
2022-11-10T10:43:40.445Z,80.19
2022-11-10T10:46:32.858Z,80.37
2022-11-10T10:49:31.371Z,81.14
2022-11-10T10:52:25.012Z,81.56
2022-11-10T10:55:13.292Z,81.95
2022-11-10T10:58:01.436Z,82.20
2022-11-10T11:00:51.800Z,81.45
2022-11-10T11:03:43.017Z,80.86
2022-11-10T11:06:30.448Z,81.00
2022-11-10T11:09:20.080Z,81.63
2022-11-10T11:12:09.255Z,81.64
2022-11-10T11:15:13.787Z,81.10
2022-11-10T11:18:05.243Z,81.42
2022-11-10T11:21:01.449Z,80.78
2022-11-10T11:24:11.608Z,81.57
2022-11-10T11:27:02.230Z,81.27
2022-11-10T11:30:04.898Z,81.38
2022-11-10T11:33:29.202Z,81.48
2022-11-10T11:36:25.770Z,81.33
2022-11-10T11:39:24.950Z,80.50
2022-11-10T11:42:23.709Z,80.83
2022-11-10T11:45:17.316Z,80.90
2022-11-10T11:48:20.226Z,81.43
2022-11-10T11:51:15.924Z,80.59
2022-11-10T11:54:26.977Z,80.70
2022-11-10T11:57:27.942Z,81.31
2022-11-10T12:00:15.862Z,81.02
2022-11-10T12:03:29.989Z,81.45
2022-11-10T12:06:32.844Z,80.48
2022-11-10T12:09:26.277Z,81.08
2022-11-10T12:12:37.846Z,80.87
2022-11-10T12:15:32.460Z,80.84
2022-11-10T12:18:30.145Z,81.53
2022-11-10T12:21:23.526Z,81.14
2022-11-10T12:24:52.156Z,81.54
2022-11-10T12:27:44.339Z,81.29
2022-11-10T12:30:31.680Z,81.65
2022-11-10T12:33:30.636Z,81.96
2022-11-10T12:36:20.647Z,82.12
2022-11-10T12:39:17.286Z,82.06
2022-11-10T12:42:08.255Z,81.78
2022-11-10T12:45:02.809Z,82.09
2022-11-10T12:47:49.743Z,82.09
2022-11-10T12:50:45.583Z,82.18
2022-11-10T12:53:35.479Z,82.26
2022-11-10T12:56:28.075Z,82.15
2022-11-10T12:59:24.481Z,82.54
2022-11-10T13:02:24.001Z,82.53
2022-11-10T13:05:21.344Z,82.86
2022-11-10T13:08:24.511Z,82.87
2022-11-10T13:11:23.844Z,82.96
2022-11-10T13:14:24.130Z,83.19
2022-11-10T13:17:11.556Z,83.29
2022-11-10T13:20:05.222Z,83.63
2022-11-10T13:23:00.656Z,83.95
2022-11-10T13:25:55.645Z,83.49
2022-11-10T13:29:01.847Z,83.52
2022-11-10T13:31:55.349Z,84.04
2022-11-10T13:34:42.158Z,83.88
2022-11-10T13:37:49.662Z,84.02
2022-11-10T13:40:37.577Z,83.84
2022-11-10T13:43:26.086Z,83.89
2022-11-10T13:46:12.377Z,84.12
2022-11-10T13:49:24.210Z,84.42
2022-11-10T13:52:14.185Z,84.52
2022-11-10T13:55:28.227Z,84.20
2022-11-10T13:58:24.535Z,84.32
2022-11-10T14:01:27.228Z,84.22
2022-11-10T14:04:41.592Z,84.70
2022-11-10T14:07:31.662Z,84.80
2022-11-10T14:10:20.041Z,85.13
2022-11-10T14:13:12.681Z,85.07
2022-11-10T14:15:58.923Z,84.91
2022-11-10T14:18:54.481Z,85.15
2022-11-10T14:21:47.609Z,85.42
2022-11-10T14:24:38.498Z,85.33
2022-11-10T14:27:27.127Z,85.55
2022-11-10T14:30:24.914Z,85.62
2022-11-10T14:33:13.274Z,85.47
2022-11-10T14:36:02.112Z,85.50
2022-11-10T14:38:51.379Z,85.62
2022-11-10T14:41:48.195Z,85.77
2022-11-10T14:44:42.299Z,85.89
2022-11-10T14:47:31.362Z,85.79
2022-11-10T14:50:20.343Z,85.90
2022-11-10T14:53:12.408Z,85.88
2022-11-10T14:56:01.628Z,85.86
2022-11-10T14:58:48.990Z,86.09
2022-11-10T15:01:36.984Z,85.93
2022-11-10T15:04:27.278Z,85.85
2022-11-10T15:07:13.341Z,86.09
2022-11-10T15:10:06.723Z,85.78
2022-11-10T15:13:06.485Z,85.82
2022-11-10T15:15:53.772Z,85.79
2022-11-10T15:18:39.937Z,85.93
2022-11-10T15:21:30.892Z,86.26
2022-11-10T15:24:18.684Z,86.41
2022-11-10T15:27:04.988Z,86.52
2022-11-10T15:29:54.731Z,86.19
2022-11-10T15:32:43.543Z,86.09
2022-11-10T15:35:31.975Z,86.27
2022-11-10T15:38:28.365Z,86.37
2022-11-10T15:41:16.513Z,86.70
2022-11-10T15:44:16.202Z,86.77
2022-11-10T15:47:03.286Z,86.86
2022-11-10T15:49:49.240Z,86.78
2022-11-10T15:52:35.269Z,86.98
2022-11-10T15:55:20.973Z,87.00
2022-11-10T15:58:11.998Z,86.84
2022-11-10T16:00:57.815Z,86.82
2022-11-10T16:03:45.354Z,86.92
2022-11-10T16:06:32.497Z,86.65
2022-11-10T16:09:18.651Z,86.61
2022-11-10T16:12:05.043Z,86.78
2022-11-10T16:14:53.957Z,86.77
2022-11-10T16:17:41.567Z,86.96
2022-11-10T16:20:28.592Z,87.05
2022-11-10T16:23:14.677Z,86.96
2022-11-10T16:26:00.508Z,87.04
2022-11-10T16:28:47.862Z,87.01
2022-11-10T16:31:35.124Z,86.82
2022-11-10T16:34:20.762Z,87.03
2022-11-10T16:37:11.288Z,86.90
2022-11-10T16:39:57.221Z,86.88
2022-11-10T16:42:44.037Z,87.16
2022-11-10T16:45:30.545Z,87.14
2022-11-10T16:48:19.324Z,87.39
2022-11-10T16:51:05.604Z,87.33
2022-11-10T16:53:53.864Z,87.02
2022-11-10T16:56:39.803Z,87.54
2022-11-10T16:59:25.943Z,87.26
2022-11-10T17:02:25.613Z,87.42
2022-11-10T17:05:14.328Z,87.56
2022-11-10T17:08:02.743Z,87.61
2022-11-10T17:10:50.841Z,87.56
2022-11-10T17:13:36.844Z,87.66
2022-11-10T17:16:26.060Z,87.54
2022-11-10T17:19:17.796Z,87.67
2022-11-10T17:22:03.805Z,87.56
2022-11-10T17:24:53.891Z,87.58
2022-11-10T17:27:41.793Z,87.78
2022-11-10T17:30:27.808Z,87.74
2022-11-10T17:33:13.854Z,87.92
2022-11-10T17:36:01.291Z,88.21
2022-11-10T17:38:47.473Z,88.10
2022-11-10T17:41:34.187Z,88.03
2022-11-10T17:44:22.431Z,87.87
2022-11-10T17:47:08.646Z,88.23
2022-11-10T17:49:54.327Z,88.21
2022-11-10T17:52:40.029Z,88.13
2022-11-10T17:55:33.729Z,88.12
2022-11-10T17:58:20.546Z,88.24
2022-11-10T18:01:16.831Z,88.23
2022-11-10T18:04:02.657Z,88.14
2022-11-10T18:06:48.603Z,88.25
2022-11-10T18:09:34.543Z,88.55
2022-11-10T18:12:24.001Z,88.56
2022-11-10T18:15:14.016Z,88.71
2022-11-10T18:18:01.763Z,88.61
2022-11-10T18:20:47.632Z,88.82
2022-11-10T18:23:33.801Z,88.93
2022-11-10T18:26:19.931Z,89.06
2022-11-10T18:29:06.031Z,88.92
2022-11-10T18:31:52.136Z,89.00
2022-11-10T18:34:39.277Z,89.09
2022-11-10T18:37:24.878Z,88.43
2022-11-10T18:40:11.868Z,88.65
2022-11-10T18:43:00.677Z,88.60
2022-11-10T18:45:53.018Z,88.76
2022-11-10T18:48:39.109Z,88.89
2022-11-10T18:51:26.593Z,88.63
2022-11-10T18:54:12.955Z,88.66
2022-11-10T18:56:58.768Z,88.48
2022-11-10T18:59:45.381Z,88.84
2022-11-10T19:02:34.561Z,88.20
2022-11-10T19:05:21.137Z,88.25
2022-11-10T19:08:11.304Z,88.05
2022-11-10T19:10:57.775Z,87.90
2022-11-10T19:13:44.155Z,88.01
2022-11-10T19:16:30.306Z,88.04
2022-11-10T19:19:16.195Z,87.83
2022-11-10T19:22:02.140Z,87.85
2022-11-10T19:25:07.123Z,88.24
2022-11-10T19:27:53.740Z,87.89
2022-11-10T19:30:39.839Z,87.97
2022-11-10T19:33:26.037Z,87.84
2022-11-10T19:36:13.810Z,87.85
2022-11-10T19:38:59.429Z,87.92
2022-11-10T19:41:46.508Z,87.63
2022-11-10T19:44:32.402Z,87.28
2022-11-10T19:47:17.703Z,87.55
2022-11-10T19:50:04.250Z,88.02
2022-11-10T19:52:52.599Z,87.79
2022-11-10T19:55:38.605Z,87.97
2022-11-10T19:58:25.945Z,87.87
2022-11-10T20:01:12.507Z,87.74
2022-11-10T20:04:00.771Z,87.75
2022-11-10T20:06:47.058Z,87.56
2022-11-10T20:09:32.817Z,87.66
2022-11-10T20:12:18.899Z,87.42
2022-11-10T20:15:08.157Z,87.28
2022-11-10T20:17:54.242Z,87.29
2022-11-10T20:20:40.952Z,87.40
2022-11-10T20:23:26.953Z,87.08
2022-11-10T20:26:14.724Z,87.19
2022-11-10T20:29:00.503Z,87.32
2022-11-10T20:31:47.751Z,87.46
2022-11-10T20:34:33.623Z,87.51
2022-11-10T20:37:19.302Z,87.58
2022-11-10T20:40:14.030Z,87.53
2022-11-10T20:43:10.003Z,87.20
2022-11-10T20:45:56.092Z,87.14
2022-11-10T20:48:44.591Z,87.47
2022-11-10T20:51:31.086Z,87.11
2022-11-10T20:54:17.535Z,87.16
2022-11-10T20:57:03.493Z,87.60
2022-11-10T20:59:49.565Z,87.62
2022-11-10T21:02:35.878Z,87.52
2022-11-10T21:05:23.233Z,87.39
2022-11-10T21:08:09.371Z,87.28
2022-11-10T21:10:57.186Z,87.37
2022-11-10T21:13:43.310Z,87.31
2022-11-10T21:16:31.793Z,87.33
2022-11-10T21:19:17.348Z,87.00
2022-11-10T21:22:04.617Z,87.08
2022-11-10T21:24:50.506Z,87.03
2022-11-10T21:27:36.778Z,87.14
2022-11-10T21:30:23.121Z,87.19
2022-11-10T21:33:09.439Z,87.08
2022-11-10T21:35:55.035Z,87.35
2022-11-10T21:38:45.997Z,87.44
2022-11-10T21:41:32.373Z,87.24
2022-11-10T21:44:18.312Z,87.25
2022-11-10T21:47:04.685Z,87.39
2022-11-10T21:49:50.753Z,87.28
2022-11-10T21:52:36.664Z,87.38
2022-11-10T21:55:24.092Z,87.48
2022-11-10T21:58:09.578Z,87.47
2022-11-10T22:01:01.188Z,87.47
2022-11-10T22:03:47.349Z,87.37
2022-11-10T22:06:51.876Z,87.46
2022-11-10T22:09:56.346Z,87.59
2022-11-10T22:13:02.539Z,87.79
2022-11-10T22:16:07.685Z,87.92
2022-11-10T22:18:53.812Z,88.22
2022-11-10T22:21:39.650Z,88.37
2022-11-10T22:24:26.880Z,88.54
2022-11-10T22:27:13.112Z,88.83
2022-11-10T22:30:00.683Z,88.65
2022-11-10T22:32:46.568Z,88.75
2022-11-10T22:35:44.151Z,88.84
2022-11-10T22:38:30.700Z,88.82
2022-11-10T22:41:36.086Z,89.05
2022-11-10T22:44:25.133Z,89.30
2022-11-10T22:47:12.513Z,89.34
2022-11-10T22:49:58.573Z,89.37
2022-11-10T22:52:44.249Z,89.43
2022-11-10T22:55:30.560Z,89.42
2022-11-10T22:58:16.780Z,89.63
2022-11-10T23:01:06.697Z,89.33
2022-11-10T23:03:54.167Z,89.73
2022-11-10T23:06:40.269Z,89.60
2022-11-10T23:09:26.225Z,89.94
2022-11-10T23:12:11.710Z,89.48
2022-11-10T23:14:57.994Z,89.96
2022-11-10T23:17:43.779Z,89.87
2022-11-10T23:20:30.624Z,89.93
2022-11-10T23:23:16.675Z,90.05
2022-11-10T23:26:05.211Z,89.81
2022-11-10T23:28:53.153Z,89.89
2022-11-10T23:31:39.165Z,89.93
2022-11-10T23:34:25.156Z,89.83
2022-11-10T23:37:12.569Z,89.97
2022-11-10T23:39:58.394Z,90.07
2022-11-10T23:42:45.177Z,89.96
2022-11-10T23:45:52.907Z,89.97
2022-11-10T23:48:37.845Z,90.12
2022-11-10T23:51:24.933Z,90.06
2022-11-10T23:54:12.184Z,90.16
2022-11-10T23:56:58.282Z,90.08
2022-11-10T23:59:43.889Z,90.29
